Swan River, Canada
Current Conditions -  °F | °C
As of 3:00 PM on Tuesday 27 Jan 2015 (Local Time) from CYQV Reporting Station
Clear Clear  
Wind Chill: 26°   Ceiling: Unl
Heat Index: 32°   Visibility: 9mi
Dew Point: 30°   Wind: 6mph
Humidity: 93%   Direction: 40°NE
Pressure: 29.82"   Gusts: NA
Location:  52.11°N, 101.25°W
Report Text: CYQV 272100Z AUTO 04005KT 9SM CLR 00/M01 A2982 RMK SLP125
Loading
Personal Weather Stations






























Interactive Weather Map New forecast layout! Learn more

10-Day Weather Forecast

Advertisements
Track Severe Weather on mobile